sensor_id;sensor_type;location;lat;lon;timestamp;temperature;humidity
60701;DHT22;46541;49.894;10.886;2023-04-30T00:00:38;12.30;99.90
60701;DHT22;46541;49.894;10.886;2023-04-30T00:03:06;12.20;99.90
60701;DHT22;46541;49.894;10.886;2023-04-30T00:05:33;12.20;99.90
60701;DHT22;46541;49.894;10.886;2023-04-30T00:08:00;12.20;99.90
60701;DHT22;46541;49.894;10.886;2023-04-30T00:10:26;12.30;99.90
60701;DHT22;46541;49.894;10.886;2023-04-30T00:12:53;12.30;99.90
60701;DHT22;46541;49.894;10.886;2023-04-30T00:15:20;12.30;99.90
60701;DHT22;46541;49.894;10.886;2023-04-30T00:17:46;12.30;99.90
60701;DHT22;46541;49.894;10.886;2023-04-30T00:20:13;12.20;99.90
60701;DHT22;46541;49.894;10.886;2023-04-30T00:22:41;12.20;99.90
60701;DHT22;46541;49.894;10.886;2023-04-30T00:25:07;12.20;99.90
60701;DHT22;46541;49.894;10.886;2023-04-30T00:27:34;12.20;99.90
60701;DHT22;46541;49.894;10.886;2023-04-30T00:30:01;12.20;99.90
60701;DHT22;46541;49.894;10.886;2023-04-30T00:32:28;12.20;99.90
60701;DHT22;46541;49.894;10.886;2023-04-30T00:34:55;12.20;99.90
60701;DHT22;46541;49.894;10.886;2023-04-30T00:37:21;12.20;99.90
60701;DHT22;46541;49.894;10.886;2023-04-30T00:39:48;12.10;99.90
60701;DHT22;46541;49.894;10.886;2023-04-30T00:42:15;12.10;99.90
60701;DHT22;46541;49.894;10.886;2023-04-30T00:44:41;12.10;99.90
60701;DHT22;46541;49.894;10.886;2023-04-30T00:47:08;12.00;99.90
60701;DHT22;46541;49.894;10.886;2023-04-30T00:49:35;12.10;99.90
60701;DHT22;46541;49.894;10.886;2023-04-30T00:52:02;12.10;99.90
60701;DHT22;46541;49.894;10.886;2023-04-30T00:54:29;12.10;99.90
60701;DHT22;46541;49.894;10.886;2023-04-30T00:56:56;12.10;99.90
60701;DHT22;46541;49.894;10.886;2023-04-30T00:59:23;12.10;99.90
60701;DHT22;46541;49.894;10.886;2023-04-30T01:01:51;12.10;99.90
60701;DHT22;46541;49.894;10.886;2023-04-30T01:04:19;12.10;99.90
60701;DHT22;46541;49.894;10.886;2023-04-30T01:06:46;12.00;99.90
60701;DHT22;46541;49.894;10.886;2023-04-30T01:09:12;12.10;99.90
60701;DHT22;46541;49.894;10.886;2023-04-30T01:17:05;12.10;99.90
60701;DHT22;46541;49.894;10.886;2023-04-30T01:19:42;12.10;99.90
60701;DHT22;46541;49.894;10.886;2023-04-30T01:22:44;12.00;99.90
60701;DHT22;46541;49.894;10.886;2023-04-30T01:25:34;12.00;99.90
60701;DHT22;46541;49.894;10.886;2023-04-30T01:28:07;12.00;99.90
60701;DHT22;46541;49.894;10.886;2023-04-30T01:30:35;12.00;99.90
60701;DHT22;46541;49.894;10.886;2023-04-30T01:33:02;12.00;99.90
60701;DHT22;46541;49.894;10.886;2023-04-30T01:43:39;12.00;99.90
60701;DHT22;46541;49.894;10.886;2023-04-30T01:46:17;12.00;99.90
60701;DHT22;46541;49.894;10.886;2023-04-30T01:49:17;12.00;99.90
60701;DHT22;46541;49.894;10.886;2023-04-30T01:51:46;12.00;99.90
60701;DHT22;46541;49.894;10.886;2023-04-30T01:54:44;12.00;99.90
60701;DHT22;46541;49.894;10.886;2023-04-30T01:57:18;12.00;99.90
60701;DHT22;46541;49.894;10.886;2023-04-30T01:59:47;12.00;99.90
60701;DHT22;46541;49.894;10.886;2023-04-30T02:02:14;12.00;99.90
60701;DHT22;46541;49.894;10.886;2023-04-30T02:04:41;12.00;99.90
60701;DHT22;46541;49.894;10.886;2023-04-30T02:07:08;12.00;99.90
60701;DHT22;46541;49.894;10.886;2023-04-30T02:09:34;11.90;99.90
60701;DHT22;46541;49.894;10.886;2023-04-30T02:12:01;11.90;99.90
60701;DHT22;46541;49.894;10.886;2023-04-30T02:14:30;11.90;99.90
60701;DHT22;46541;49.894;10.886;2023-04-30T02:16:57;11.90;99.90
60701;DHT22;46541;49.894;10.886;2023-04-30T02:19:24;11.80;99.90
60701;DHT22;46541;49.894;10.886;2023-04-30T02:21:50;11.80;99.90
60701;DHT22;46541;49.894;10.886;2023-04-30T02:24:17;11.80;99.90
60701;DHT22;46541;49.894;10.886;2023-04-30T02:26:44;11.80;99.90
60701;DHT22;46541;49.894;10.886;2023-04-30T02:29:10;11.80;99.90
60701;DHT22;46541;49.894;10.886;2023-04-30T02:31:37;11.80;99.90
60701;DHT22;46541;49.894;10.886;2023-04-30T02:34:04;11.80;99.90
60701;DHT22;46541;49.894;10.886;2023-04-30T02:36:31;11.90;99.90
60701;DHT22;46541;49.894;10.886;2023-04-30T02:39:01;11.90;99.90
60701;DHT22;46541;49.894;10.886;2023-04-30T02:41:28;11.80;99.90
60701;DHT22;46541;49.894;10.886;2023-04-30T02:43:55;11.80;99.90
60701;DHT22;46541;49.894;10.886;2023-04-30T02:46:22;11.80;99.90
60701;DHT22;46541;49.894;10.886;2023-04-30T02:48:49;11.80;99.90
60701;DHT22;46541;49.894;10.886;2023-04-30T02:51:16;11.80;99.90
60701;DHT22;46541;49.894;10.886;2023-04-30T02:53:43;11.80;99.90
60701;DHT22;46541;49.894;10.886;2023-04-30T02:56:09;11.70;99.90
60701;DHT22;46541;49.894;10.886;2023-04-30T02:58:36;11.70;99.90
60701;DHT22;46541;49.894;10.886;2023-04-30T03:01:03;11.70;99.90
60701;DHT22;46541;49.894;10.886;2023-04-30T03:03:29;11.70;99.90
60701;DHT22;46541;49.894;10.886;2023-04-30T03:05:56;11.70;99.90
60701;DHT22;46541;49.894;10.886;2023-04-30T03:08:25;11.70;99.90
60701;DHT22;46541;49.894;10.886;2023-04-30T03:10:52;11.70;99.90
60701;DHT22;46541;49.894;10.886;2023-04-30T03:13:19;11.60;99.90
60701;DHT22;46541;49.894;10.886;2023-04-30T03:15:46;11.60;99.90
60701;DHT22;46541;49.894;10.886;2023-04-30T03:18:13;11.60;99.90
60701;DHT22;46541;49.894;10.886;2023-04-30T03:20:39;11.60;99.90
60701;DHT22;46541;49.894;10.886;2023-04-30T03:23:06;11.60;99.90
60701;DHT22;46541;49.894;10.886;2023-04-30T03:25:33;11.60;99.90
60701;DHT22;46541;49.894;10.886;2023-04-30T03:27:59;11.70;99.90
60701;DHT22;46541;49.894;10.886;2023-04-30T03:30:27;11.60;99.90
60701;DHT22;46541;49.894;10.886;2023-04-30T03:32:53;11.60;99.90
60701;DHT22;46541;49.894;10.886;2023-04-30T03:35:20;11.60;99.90
60701;DHT22;46541;49.894;10.886;2023-04-30T03:37:47;11.60;99.90
60701;DHT22;46541;49.894;10.886;2023-04-30T03:40:14;11.60;99.90
60701;DHT22;46541;49.894;10.886;2023-04-30T03:42:40;11.60;99.90
60701;DHT22;46541;49.894;10.886;2023-04-30T03:45:07;11.60;99.90
60701;DHT22;46541;49.894;10.886;2023-04-30T03:47:35;11.60;99.90
60701;DHT22;46541;49.894;10.886;2023-04-30T03:50:03;11.60;99.90
60701;DHT22;46541;49.894;10.886;2023-04-30T03:52:30;11.60;99.90
60701;DHT22;46541;49.894;10.886;2023-04-30T03:54:56;11.60;99.90
60701;DHT22;46541;49.894;10.886;2023-04-30T03:57:23;11.50;99.90
60701;DHT22;46541;49.894;10.886;2023-04-30T03:59:50;11.50;99.90
60701;DHT22;46541;49.894;10.886;2023-04-30T04:02:17;11.50;99.90
60701;DHT22;46541;49.894;10.886;2023-04-30T04:04:44;11.50;99.90
60701;DHT22;46541;49.894;10.886;2023-04-30T04:07:10;11.50;99.90
60701;DHT22;46541;49.894;10.886;2023-04-30T04:09:37;11.50;99.90
60701;DHT22;46541;49.894;10.886;2023-04-30T04:12:04;11.40;99.90
60701;DHT22;46541;49.894;10.886;2023-04-30T04:14:31;11.40;99.90
60701;DHT22;46541;49.894;10.886;2023-04-30T04:16:58;11.50;99.90
60701;DHT22;46541;49.894;10.886;2023-04-30T04:19:26;11.40;99.90
60701;DHT22;46541;49.894;10.886;2023-04-30T04:21:52;11.40;99.90
60701;DHT22;46541;49.894;10.886;2023-04-30T04:24:19;11.40;99.90
60701;DHT22;46541;49.894;10.886;2023-04-30T04:26:46;11.40;99.90
60701;DHT22;46541;49.894;10.886;2023-04-30T04:29:13;11.40;99.90
60701;DHT22;46541;49.894;10.886;2023-04-30T04:31:40;11.40;99.90
60701;DHT22;46541;49.894;10.886;2023-04-30T04:34:08;11.50;99.90
60701;DHT22;46541;49.894;10.886;2023-04-30T04:36:34;11.50;99.90
60701;DHT22;46541;49.894;10.886;2023-04-30T04:39:02;11.50;99.90
60701;DHT22;46541;49.894;10.886;2023-04-30T04:41:33;11.50;99.90
60701;DHT22;46541;49.894;10.886;2023-04-30T04:44:01;11.50;99.90
60701;DHT22;46541;49.894;10.886;2023-04-30T04:46:29;11.50;99.90
60701;DHT22;46541;49.894;10.886;2023-04-30T04:48:57;11.60;99.90
60701;DHT22;46541;49.894;10.886;2023-04-30T04:51:24;11.60;99.90
60701;DHT22;46541;49.894;10.886;2023-04-30T04:53:51;11.70;99.90
60701;DHT22;46541;49.894;10.886;2023-04-30T04:56:17;11.80;99.90
60701;DHT22;46541;49.894;10.886;2023-04-30T04:58:44;11.80;99.90
60701;DHT22;46541;49.894;10.886;2023-04-30T05:01:11;11.90;99.90
60701;DHT22;46541;49.894;10.886;2023-04-30T05:03:37;11.90;99.90
60701;DHT22;46541;49.894;10.886;2023-04-30T05:06:05;11.90;99.90
60701;DHT22;46541;49.894;10.886;2023-04-30T05:08:32;11.90;99.90
60701;DHT22;46541;49.894;10.886;2023-04-30T05:10:58;11.90;99.90
60701;DHT22;46541;49.894;10.886;2023-04-30T05:13:25;11.80;99.90
60701;DHT22;46541;49.894;10.886;2023-04-30T05:15:52;11.80;99.90
60701;DHT22;46541;49.894;10.886;2023-04-30T05:18:19;11.80;99.90
60701;DHT22;46541;49.894;10.886;2023-04-30T05:20:46;11.80;99.90
60701;DHT22;46541;49.894;10.886;2023-04-30T05:23:13;11.70;99.90
60701;DHT22;46541;49.894;10.886;2023-04-30T05:25:39;11.70;99.90
60701;DHT22;46541;49.894;10.886;2023-04-30T05:28:06;11.70;99.90
60701;DHT22;46541;49.894;10.886;2023-04-30T05:30:33;11.70;99.90
60701;DHT22;46541;49.894;10.886;2023-04-30T05:32:59;11.70;99.90
60701;DHT22;46541;49.894;10.886;2023-04-30T05:35:26;11.80;99.90
60701;DHT22;46541;49.894;10.886;2023-04-30T05:37:53;11.80;99.90
60701;DHT22;46541;49.894;10.886;2023-04-30T05:40:20;11.80;99.90
60701;DHT22;46541;49.894;10.886;2023-04-30T05:42:47;11.80;99.90
60701;DHT22;46541;49.894;10.886;2023-04-30T05:45:15;11.90;99.90
60701;DHT22;46541;49.894;10.886;2023-04-30T05:47:42;11.90;99.90
60701;DHT22;46541;49.894;10.886;2023-04-30T05:50:10;12.00;99.90
60701;DHT22;46541;49.894;10.886;2023-04-30T05:52:37;12.00;99.90
60701;DHT22;46541;49.894;10.886;2023-04-30T05:55:04;12.10;99.90
60701;DHT22;46541;49.894;10.886;2023-04-30T05:57:31;12.10;99.90
60701;DHT22;46541;49.894;10.886;2023-04-30T05:59:57;12.20;99.90
60701;DHT22;46541;49.894;10.886;2023-04-30T06:02:24;12.30;99.90
60701;DHT22;46541;49.894;10.886;2023-04-30T06:04:51;12.30;99.90
60701;DHT22;46541;49.894;10.886;2023-04-30T06:07:18;12.40;99.90
60701;DHT22;46541;49.894;10.886;2023-04-30T06:09:45;12.50;99.90
60701;DHT22;46541;49.894;10.886;2023-04-30T06:12:11;12.60;99.90
60701;DHT22;46541;49.894;10.886;2023-04-30T06:14:38;12.60;99.90
60701;DHT22;46541;49.894;10.886;2023-04-30T06:17:05;12.60;99.90
60701;DHT22;46541;49.894;10.886;2023-04-30T06:19:31;12.60;99.90
60701;DHT22;46541;49.894;10.886;2023-04-30T06:21:58;12.60;99.90
60701;DHT22;46541;49.894;10.886;2023-04-30T06:24:25;12.70;99.90
60701;DHT22;46541;49.894;10.886;2023-04-30T06:26:53;12.90;99.90
60701;DHT22;46541;49.894;10.886;2023-04-30T06:29:19;13.00;99.90
60701;DHT22;46541;49.894;10.886;2023-04-30T06:31:46;13.10;99.90
60701;DHT22;46541;49.894;10.886;2023-04-30T06:34:13;13.30;99.90
60701;DHT22;46541;49.894;10.886;2023-04-30T06:36:40;13.30;99.90
60701;DHT22;46541;49.894;10.886;2023-04-30T06:39:06;13.50;99.90
60701;DHT22;46541;49.894;10.886;2023-04-30T06:41:33;13.50;99.90
60701;DHT22;46541;49.894;10.886;2023-04-30T06:44:00;13.60;99.90
60701;DHT22;46541;49.894;10.886;2023-04-30T06:46:26;13.30;99.90
60701;DHT22;46541;49.894;10.886;2023-04-30T06:48:53;13.30;99.90
60701;DHT22;46541;49.894;10.886;2023-04-30T06:51:20;13.30;99.90
60701;DHT22;46541;49.894;10.886;2023-04-30T06:53:46;13.50;99.90
60701;DHT22;46541;49.894;10.886;2023-04-30T06:56:13;13.60;99.90
60701;DHT22;46541;49.894;10.886;2023-04-30T06:58:40;13.60;99.90
60701;DHT22;46541;49.894;10.886;2023-04-30T07:01:06;13.70;99.90
60701;DHT22;46541;49.894;10.886;2023-04-30T07:03:34;13.90;99.90
60701;DHT22;46541;49.894;10.886;2023-04-30T07:06:01;14.00;99.90
60701;DHT22;46541;49.894;10.886;2023-04-30T07:08:28;14.10;99.90
60701;DHT22;46541;49.894;10.886;2023-04-30T07:10:54;14.20;99.90
60701;DHT22;46541;49.894;10.886;2023-04-30T07:13:21;14.10;99.90
60701;DHT22;46541;49.894;10.886;2023-04-30T07:15:48;14.20;99.90
60701;DHT22;46541;49.894;10.886;2023-04-30T07:18:15;14.10;99.90
60701;DHT22;46541;49.894;10.886;2023-04-30T07:20:41;14.30;99.90
60701;DHT22;46541;49.894;10.886;2023-04-30T07:23:08;14.30;99.90
60701;DHT22;46541;49.894;10.886;2023-04-30T07:25:35;14.60;99.90
60701;DHT22;46541;49.894;10.886;2023-04-30T07:28:01;14.80;99.90
60701;DHT22;46541;49.894;10.886;2023-04-30T07:30:28;15.00;99.90
60701;DHT22;46541;49.894;10.886;2023-04-30T07:32:55;15.10;99.90
60701;DHT22;46541;49.894;10.886;2023-04-30T07:35:22;15.30;99.90
60701;DHT22;46541;49.894;10.886;2023-04-30T07:37:49;15.20;99.90
60701;DHT22;46541;49.894;10.886;2023-04-30T07:40:15;15.30;99.90
60701;DHT22;46541;49.894;10.886;2023-04-30T07:43:00;15.50;99.90
60701;DHT22;46541;49.894;10.886;2023-04-30T07:45:27;15.70;99.90
60701;DHT22;46541;49.894;10.886;2023-04-30T07:47:53;15.80;99.90
60701;DHT22;46541;49.894;10.886;2023-04-30T07:50:20;15.90;99.90
60701;DHT22;46541;49.894;10.886;2023-04-30T07:52:48;15.90;99.90
60701;DHT22;46541;49.894;10.886;2023-04-30T07:55:16;16.10;99.90
60701;DHT22;46541;49.894;10.886;2023-04-30T07:57:42;16.20;99.20
60701;DHT22;46541;49.894;10.886;2023-04-30T08:00:09;16.30;99.40
60701;DHT22;46541;49.894;10.886;2023-04-30T08:02:36;16.40;98.10
60701;DHT22;46541;49.894;10.886;2023-04-30T08:05:03;16.40;97.60
60701;DHT22;46541;49.894;10.886;2023-04-30T08:07:31;16.30;97.40
60701;DHT22;46541;49.894;10.886;2023-04-30T08:09:57;16.30;96.60
60701;DHT22;46541;49.894;10.886;2023-04-30T08:12:24;16.20;96.00
60701;DHT22;46541;49.894;10.886;2023-04-30T08:14:59;16.10;96.60
60701;DHT22;46541;49.894;10.886;2023-04-30T08:17:26;16.10;95.50
60701;DHT22;46541;49.894;10.886;2023-04-30T08:19:53;16.10;95.70
60701;DHT22;46541;49.894;10.886;2023-04-30T08:22:21;16.40;96.30
60701;DHT22;46541;49.894;10.886;2023-04-30T08:24:48;16.60;94.60
60701;DHT22;46541;49.894;10.886;2023-04-30T08:27:15;16.70;93.60
60701;DHT22;46541;49.894;10.886;2023-04-30T08:29:42;16.70;95.40
60701;DHT22;46541;49.894;10.886;2023-04-30T08:32:08;16.90;94.00
60701;DHT22;46541;49.894;10.886;2023-04-30T08:34:35;16.90;95.00
60701;DHT22;46541;49.894;10.886;2023-04-30T08:37:02;16.80;95.70
60701;DHT22;46541;49.894;10.886;2023-04-30T08:39:29;16.90;94.90
60701;DHT22;46541;49.894;10.886;2023-04-30T08:41:56;16.80;95.70
60701;DHT22;46541;49.894;10.886;2023-04-30T08:44:27;17.00;95.50
60701;DHT22;46541;49.894;10.886;2023-04-30T08:46:55;17.00;94.30
60701;DHT22;46541;49.894;10.886;2023-04-30T08:49:24;17.10;94.00
60701;DHT22;46541;49.894;10.886;2023-04-30T08:51:51;17.30;94.10
60701;DHT22;46541;49.894;10.886;2023-04-30T08:54:18;17.40;91.50
60701;DHT22;46541;49.894;10.886;2023-04-30T08:56:45;17.30;91.20
60701;DHT22;46541;49.894;10.886;2023-04-30T08:59:12;17.30;90.80
60701;DHT22;46541;49.894;10.886;2023-04-30T09:01:39;17.40;89.90
60701;DHT22;46541;49.894;10.886;2023-04-30T09:04:07;17.60;90.40
60701;DHT22;46541;49.894;10.886;2023-04-30T09:06:34;17.50;89.60
60701;DHT22;46541;49.894;10.886;2023-04-30T09:09:08;17.40;85.10
60701;DHT22;46541;49.894;10.886;2023-04-30T09:11:36;17.30;87.30
60701;DHT22;46541;49.894;10.886;2023-04-30T09:14:03;17.50;88.50
60701;DHT22;46541;49.894;10.886;2023-04-30T09:16:50;17.60;89.70
60701;DHT22;46541;49.894;10.886;2023-04-30T09:19:28;17.70;87.60
60701;DHT22;46541;49.894;10.886;2023-04-30T09:21:55;17.80;86.70
60701;DHT22;46541;49.894;10.886;2023-04-30T09:24:23;17.80;82.80
60701;DHT22;46541;49.894;10.886;2023-04-30T09:26:50;18.00;85.50
60701;DHT22;46541;49.894;10.886;2023-04-30T09:29:17;18.10;85.80
60701;DHT22;46541;49.894;10.886;2023-04-30T09:31:45;18.10;78.10
60701;DHT22;46541;49.894;10.886;2023-04-30T09:34:13;18.30;79.50
60701;DHT22;46541;49.894;10.886;2023-04-30T09:36:53;18.80;78.90
60701;DHT22;46541;49.894;10.886;2023-04-30T09:39:20;19.50;76.10
60701;DHT22;46541;49.894;10.886;2023-04-30T09:41:49;20.00;73.90
60701;DHT22;46541;49.894;10.886;2023-04-30T09:46:58;20.50;73.40
60701;DHT22;46541;49.894;10.886;2023-04-30T09:49:25;20.60;68.20
60701;DHT22;46541;49.894;10.886;2023-04-30T09:51:57;20.80;68.50
60701;DHT22;46541;49.894;10.886;2023-04-30T09:54:26;21.10;67.60
60701;DHT22;46541;49.894;10.886;2023-04-30T09:56:54;21.50;68.90
60701;DHT22;46541;49.894;10.886;2023-04-30T09:59:33;21.30;66.30
60701;DHT22;46541;49.894;10.886;2023-04-30T10:02:03;21.20;64.70
60701;DHT22;46541;49.894;10.886;2023-04-30T10:04:36;21.30;63.80
60701;DHT22;46541;49.894;10.886;2023-04-30T10:07:07;21.30;63.70
60701;DHT22;46541;49.894;10.886;2023-04-30T10:09:40;21.10;64.30
60701;DHT22;46541;49.894;10.886;2023-04-30T10:12:14;21.10;64.50
60701;DHT22;46541;49.894;10.886;2023-04-30T10:14:47;21.10;65.20
60701;DHT22;46541;49.894;10.886;2023-04-30T10:17:17;20.80;63.50
60701;DHT22;46541;49.894;10.886;2023-04-30T10:19:47;20.70;63.10
60701;DHT22;46541;49.894;10.886;2023-04-30T10:22:15;20.80;62.60
60701;DHT22;46541;49.894;10.886;2023-04-30T10:24:43;20.90;61.70
60701;DHT22;46541;49.894;10.886;2023-04-30T10:27:10;21.00;60.90
60701;DHT22;46541;49.894;10.886;2023-04-30T10:29:37;20.80;60.60
60701;DHT22;46541;49.894;10.886;2023-04-30T10:32:04;20.50;60.20
60701;DHT22;46541;49.894;10.886;2023-04-30T10:34:45;20.60;60.60
60701;DHT22;46541;49.894;10.886;2023-04-30T10:39:52;20.60;60.70
60701;DHT22;46541;49.894;10.886;2023-04-30T10:42:19;20.60;59.70
60701;DHT22;46541;49.894;10.886;2023-04-30T10:44:46;20.60;61.50
60701;DHT22;46541;49.894;10.886;2023-04-30T10:47:15;20.50;61.70
60701;DHT22;46541;49.894;10.886;2023-04-30T10:49:45;20.50;61.80
60701;DHT22;46541;49.894;10.886;2023-04-30T10:52:13;20.50;62.50
60701;DHT22;46541;49.894;10.886;2023-04-30T10:54:51;20.60;61.20
60701;DHT22;46541;49.894;10.886;2023-04-30T10:57:20;20.40;60.90
60701;DHT22;46541;49.894;10.886;2023-04-30T10:59:52;20.10;62.30
60701;DHT22;46541;49.894;10.886;2023-04-30T11:02:19;20.10;64.00
60701;DHT22;46541;49.894;10.886;2023-04-30T11:07:33;19.60;65.30
60701;DHT22;46541;49.894;10.886;2023-04-30T11:10:00;19.70;65.40
60701;DHT22;46541;49.894;10.886;2023-04-30T11:12:30;19.90;65.10
60701;DHT22;46541;49.894;10.886;2023-04-30T11:15:18;20.20;65.70
60701;DHT22;46541;49.894;10.886;2023-04-30T11:17:48;20.30;64.20
60701;DHT22;46541;49.894;10.886;2023-04-30T11:20:22;20.20;62.70
60701;DHT22;46541;49.894;10.886;2023-04-30T11:23:07;20.10;63.40
60701;DHT22;46541;49.894;10.886;2023-04-30T11:25:40;19.60;64.20
60701;DHT22;46541;49.894;10.886;2023-04-30T11:28:20;19.50;65.50
60701;DHT22;46541;49.894;10.886;2023-04-30T11:30:54;19.50;67.10
60701;DHT22;46541;49.894;10.886;2023-04-30T11:33:23;19.50;65.50
60701;DHT22;46541;49.894;10.886;2023-04-30T11:35:51;19.90;66.60
60701;DHT22;46541;49.894;10.886;2023-04-30T11:38:21;20.00;64.40
60701;DHT22;46541;49.894;10.886;2023-04-30T11:40:48;19.90;64.70
60701;DHT22;46541;49.894;10.886;2023-04-30T11:43:30;19.90;63.10
60701;DHT22;46541;49.894;10.886;2023-04-30T11:46:11;19.90;62.40
60701;DHT22;46541;49.894;10.886;2023-04-30T11:48:43;20.10;62.60
60701;DHT22;46541;49.894;10.886;2023-04-30T11:51:17;20.30;62.90
60701;DHT22;46541;49.894;10.886;2023-04-30T11:53:49;20.30;62.90
60701;DHT22;46541;49.894;10.886;2023-04-30T11:56:20;20.10;63.30
60701;DHT22;46541;49.894;10.886;2023-04-30T11:58:48;20.10;61.50
60701;DHT22;46541;49.894;10.886;2023-04-30T12:01:15;19.90;58.70
60701;DHT22;46541;49.894;10.886;2023-04-30T12:03:47;19.70;59.40
60701;DHT22;46541;49.894;10.886;2023-04-30T12:06:32;19.60;60.50
60701;DHT22;46541;49.894;10.886;2023-04-30T12:09:00;19.80;61.80
60701;DHT22;46541;49.894;10.886;2023-04-30T12:11:30;20.10;60.70
60701;DHT22;46541;49.894;10.886;2023-04-30T12:14:01;20.30;60.10
60701;DHT22;46541;49.894;10.886;2023-04-30T12:16:58;20.00;59.70
60701;DHT22;46541;49.894;10.886;2023-04-30T12:19:25;19.90;60.50
60701;DHT22;46541;49.894;10.886;2023-04-30T12:21:52;19.70;58.70
60701;DHT22;46541;49.894;10.886;2023-04-30T12:24:20;19.40;60.30
60701;DHT22;46541;49.894;10.886;2023-04-30T12:26:52;19.30;61.20
60701;DHT22;46541;49.894;10.886;2023-04-30T12:29:20;19.40;60.70
60701;DHT22;46541;49.894;10.886;2023-04-30T12:31:48;19.40;61.50
60701;DHT22;46541;49.894;10.886;2023-04-30T12:34:16;19.40;59.70
60701;DHT22;46541;49.894;10.886;2023-04-30T12:36:44;19.40;61.50
60701;DHT22;46541;49.894;10.886;2023-04-30T12:39:12;19.30;59.40
60701;DHT22;46541;49.894;10.886;2023-04-30T12:41:43;18.80;60.40
60701;DHT22;46541;49.894;10.886;2023-04-30T12:46:44;18.80;60.90
60701;DHT22;46541;49.894;10.886;2023-04-30T12:49:32;19.00;60.90
60701;DHT22;46541;49.894;10.886;2023-04-30T12:52:03;19.10;60.50
60701;DHT22;46541;49.894;10.886;2023-04-30T12:54:33;19.10;60.70
60701;DHT22;46541;49.894;10.886;2023-04-30T12:57:03;19.10;61.90
60701;DHT22;46541;49.894;10.886;2023-04-30T12:59:31;18.90;61.10
60701;DHT22;46541;49.894;10.886;2023-04-30T13:02:09;18.90;60.00
60701;DHT22;46541;49.894;10.886;2023-04-30T13:04:37;19.20;61.20
60701;DHT22;46541;49.894;10.886;2023-04-30T13:07:04;19.50;59.90
60701;DHT22;46541;49.894;10.886;2023-04-30T13:09:33;19.40;59.80
60701;DHT22;46541;49.894;10.886;2023-04-30T13:12:00;19.50;59.70
60701;DHT22;46541;49.894;10.886;2023-04-30T13:14:27;19.60;59.80
60701;DHT22;46541;49.894;10.886;2023-04-30T13:16:54;19.70;59.00
60701;DHT22;46541;49.894;10.886;2023-04-30T13:19:21;19.60;58.80
60701;DHT22;46541;49.894;10.886;2023-04-30T13:21:48;19.60;58.50
60701;DHT22;46541;49.894;10.886;2023-04-30T13:24:14;19.50;59.00
60701;DHT22;46541;49.894;10.886;2023-04-30T13:26:43;19.70;59.00
60701;DHT22;46541;49.894;10.886;2023-04-30T13:29:10;19.90;60.50
60701;DHT22;46541;49.894;10.886;2023-04-30T13:31:37;20.00;57.80
60701;DHT22;46541;49.894;10.886;2023-04-30T13:34:04;20.00;56.10
60701;DHT22;46541;49.894;10.886;2023-04-30T13:36:30;20.00;56.80
60701;DHT22;46541;49.894;10.886;2023-04-30T13:38:59;20.00;57.80
60701;DHT22;46541;49.894;10.886;2023-04-30T13:41:25;19.90;58.00
60701;DHT22;46541;49.894;10.886;2023-04-30T13:43:52;19.70;58.00
60701;DHT22;46541;49.894;10.886;2023-04-30T13:46:19;19.50;59.00
60701;DHT22;46541;49.894;10.886;2023-04-30T13:48:45;19.40;59.10
60701;DHT22;46541;49.894;10.886;2023-04-30T13:51:15;19.40;59.10
60701;DHT22;46541;49.894;10.886;2023-04-30T13:53:42;19.50;59.30
60701;DHT22;46541;49.894;10.886;2023-04-30T13:56:08;19.50;57.90
60701;DHT22;46541;49.894;10.886;2023-04-30T13:58:35;19.50;58.50
60701;DHT22;46541;49.894;10.886;2023-04-30T14:01:02;19.60;59.00
60701;DHT22;46541;49.894;10.886;2023-04-30T14:03:29;19.70;58.60
60701;DHT22;46541;49.894;10.886;2023-04-30T14:05:56;19.60;58.30
60701;DHT22;46541;49.894;10.886;2023-04-30T14:08:23;19.60;57.10
60701;DHT22;46541;49.894;10.886;2023-04-30T14:10:50;19.40;57.20
60701;DHT22;46541;49.894;10.886;2023-04-30T14:13:17;19.40;56.00
60701;DHT22;46541;49.894;10.886;2023-04-30T14:15:43;19.30;56.40
60701;DHT22;46541;49.894;10.886;2023-04-30T14:18:10;19.30;57.10
60701;DHT22;46541;49.894;10.886;2023-04-30T14:20:38;19.40;58.10
60701;DHT22;46541;49.894;10.886;2023-04-30T14:23:04;19.60;58.00
60701;DHT22;46541;49.894;10.886;2023-04-30T14:25:31;19.70;57.80
60701;DHT22;46541;49.894;10.886;2023-04-30T14:27:58;19.90;59.30
60701;DHT22;46541;49.894;10.886;2023-04-30T14:30:24;19.80;56.80
60701;DHT22;46541;49.894;10.886;2023-04-30T14:32:51;19.70;58.40
60701;DHT22;46541;49.894;10.886;2023-04-30T14:35:18;19.70;57.00
60701;DHT22;46541;49.894;10.886;2023-04-30T14:37:45;19.60;57.80
60701;DHT22;46541;49.894;10.886;2023-04-30T14:40:12;19.60;56.60
60701;DHT22;46541;49.894;10.886;2023-04-30T14:42:39;19.50;56.90
60701;DHT22;46541;49.894;10.886;2023-04-30T14:45:06;19.40;56.60
60701;DHT22;46541;49.894;10.886;2023-04-30T14:47:33;19.30;56.90
60701;DHT22;46541;49.894;10.886;2023-04-30T14:50:00;19.20;57.00
60701;DHT22;46541;49.894;10.886;2023-04-30T14:52:28;19.20;56.50
60701;DHT22;46541;49.894;10.886;2023-04-30T14:54:54;19.30;57.60
60701;DHT22;46541;49.894;10.886;2023-04-30T14:57:21;19.30;57.00
60701;DHT22;46541;49.894;10.886;2023-04-30T14:59:49;19.40;56.70
60701;DHT22;46541;49.894;10.886;2023-04-30T15:02:18;19.60;56.80
60701;DHT22;46541;49.894;10.886;2023-04-30T15:04:46;19.60;57.40
60701;DHT22;46541;49.894;10.886;2023-04-30T15:07:13;19.70;58.30
60701;DHT22;46541;49.894;10.886;2023-04-30T15:09:40;19.70;57.60
60701;DHT22;46541;49.894;10.886;2023-04-30T15:12:07;19.60;57.60
60701;DHT22;46541;49.894;10.886;2023-04-30T15:14:34;19.30;58.00
60701;DHT22;46541;49.894;10.886;2023-04-30T15:17:00;19.10;58.20
60701;DHT22;46541;49.894;10.886;2023-04-30T15:19:28;19.20;57.90
60701;DHT22;46541;49.894;10.886;2023-04-30T15:21:55;19.20;58.40
60701;DHT22;46541;49.894;10.886;2023-04-30T15:24:21;19.20;58.00
60701;DHT22;46541;49.894;10.886;2023-04-30T15:26:48;19.20;58.30
60701;DHT22;46541;49.894;10.886;2023-04-30T15:29:17;19.20;58.60
60701;DHT22;46541;49.894;10.886;2023-04-30T15:31:44;19.10;58.40
60701;DHT22;46541;49.894;10.886;2023-04-30T15:34:11;19.20;59.10
60701;DHT22;46541;49.894;10.886;2023-04-30T15:36:38;19.00;58.70
60701;DHT22;46541;49.894;10.886;2023-04-30T15:39:05;19.00;59.20
60701;DHT22;46541;49.894;10.886;2023-04-30T15:41:31;18.90;59.90
60701;DHT22;46541;49.894;10.886;2023-04-30T15:43:58;18.70;59.80
60701;DHT22;46541;49.894;10.886;2023-04-30T15:46:25;18.70;60.30